createdAt,value
2023-04-29T00:00:25.024Z,19.02
2023-04-29T00:02:51.865Z,20.90
2023-04-29T00:05:18.814Z,20.27
2023-04-29T00:07:45.357Z,19.55
2023-04-29T00:10:14.686Z,20.48
2023-04-29T00:12:41.848Z,20.55
2023-04-29T00:15:08.883Z,20.05
2023-04-29T00:17:36.841Z,20.00
2023-04-29T00:20:04.483Z,20.23
2023-04-29T00:22:30.920Z,19.73
2023-04-29T00:24:57.379Z,22.02
2023-04-29T00:27:23.974Z,20.13
2023-04-29T00:29:50.508Z,21.58
2023-04-29T00:32:17.140Z,20.90
2023-04-29T00:34:43.588Z,21.45
2023-04-29T00:37:10.022Z,21.42
2023-04-29T00:39:36.660Z,20.95
2023-04-29T00:42:03.631Z,20.92
2023-04-29T00:44:30.319Z,19.80
2023-04-29T00:46:57.292Z,22.35
2023-04-29T00:49:23.803Z,19.63
2023-04-29T00:51:50.471Z,21.60
2023-04-29T00:54:17.827Z,20.15
2023-04-29T00:56:45.930Z,19.83
2023-04-29T00:59:12.764Z,20.52
2023-04-29T01:01:39.294Z,20.67
2023-04-29T01:04:06.822Z,20.50
2023-04-29T01:07:04.370Z,20.25
2023-04-29T01:09:52.968Z,19.87
2023-04-29T01:12:38.348Z,18.30
2023-04-29T01:15:23.439Z,17.95
2023-04-29T01:18:00.655Z,18.60
2023-04-29T01:20:28.053Z,17.88
2023-04-29T01:22:54.558Z,16.88
2023-04-29T01:25:20.979Z,17.90
2023-04-29T01:28:26.746Z,16.50
2023-04-29T01:31:24.534Z,16.90
2023-04-29T01:34:10.999Z,16.17
2023-04-29T01:37:10.246Z,17.33
2023-04-29T01:39:56.378Z,16.35
2023-04-29T01:42:29.658Z,17.02
2023-04-29T01:45:00.558Z,16.50
2023-04-29T01:47:27.532Z,14.13
2023-04-29T01:49:54.071Z,16.17
2023-04-29T01:52:20.850Z,15.13
2023-04-29T01:54:47.397Z,15.88
2023-04-29T01:57:13.925Z,15.80
2023-04-29T01:59:40.542Z,16.90
2023-04-29T02:02:07.444Z,15.00
2023-04-29T02:04:34.621Z,15.25
2023-04-29T02:07:01.652Z,15.38
2023-04-29T02:09:28.075Z,15.18
2023-04-29T02:11:54.547Z,16.92
2023-04-29T02:14:21.175Z,15.05
2023-04-29T02:16:47.694Z,15.02
2023-04-29T02:19:14.208Z,14.68
2023-04-29T02:21:40.660Z,13.90
2023-04-29T02:24:07.135Z,14.63
2023-04-29T02:26:34.474Z,13.82
2023-04-29T02:29:01.169Z,15.13
2023-04-29T02:31:29.128Z,14.85
2023-04-29T02:33:56.127Z,15.30
2023-04-29T02:36:22.756Z,16.02
2023-04-29T02:38:50.793Z,14.55
2023-04-29T02:41:18.196Z,15.10
2023-04-29T02:43:44.986Z,14.27
2023-04-29T02:46:11.525Z,14.55
2023-04-29T02:48:38.016Z,14.35
2023-04-29T02:51:04.540Z,14.27
2023-04-29T02:53:31.008Z,17.52
2023-04-29T02:55:57.612Z,15.80
2023-04-29T02:58:24.248Z,15.65
2023-04-29T03:00:50.917Z,15.52
2023-04-29T03:03:17.711Z,14.43
2023-04-29T03:05:44.546Z,15.07
2023-04-29T03:08:11.324Z,15.48
2023-04-29T03:10:39.265Z,14.27
2023-04-29T03:13:07.780Z,15.73
2023-04-29T03:15:34.182Z,13.95
2023-04-29T03:18:02.017Z,14.48
2023-04-29T03:20:29.695Z,15.25
2023-04-29T03:22:56.147Z,14.60
2023-04-29T03:25:22.988Z,11.77
2023-04-29T03:27:49.804Z,15.32
2023-04-29T03:30:16.872Z,14.52
2023-04-29T03:32:43.434Z,15.15
2023-04-29T03:35:14.092Z,15.00
2023-04-29T03:37:44.258Z,14.40
2023-04-29T03:40:12.071Z,13.45
2023-04-29T03:42:38.664Z,14.27
2023-04-29T03:45:06.351Z,14.02
2023-04-29T03:47:32.880Z,14.02
2023-04-29T03:50:02.070Z,14.60
2023-04-29T03:52:28.540Z,13.60
2023-04-29T03:54:55.030Z,14.38
2023-04-29T03:57:21.625Z,14.38
2023-04-29T03:59:50.633Z,14.27
2023-04-29T04:02:17.743Z,15.50
2023-04-29T04:04:44.557Z,14.05
2023-04-29T04:07:11.673Z,15.73
2023-04-29T04:09:38.671Z,14.02
2023-04-29T04:12:06.218Z,15.25
2023-04-29T04:14:32.815Z,12.38
2023-04-29T04:16:59.225Z,12.70
2023-04-29T04:19:27.034Z,14.75
2023-04-29T04:21:53.641Z,14.90
2023-04-29T04:24:20.075Z,13.88
2023-04-29T04:26:46.556Z,13.60
2023-04-29T04:29:16.129Z,14.48
2023-04-29T04:31:45.478Z,14.68
2023-04-29T04:34:13.555Z,14.40
2023-04-29T04:36:40.325Z,12.73
2023-04-29T04:39:06.848Z,12.52
2023-04-29T04:41:33.417Z,13.10
2023-04-29T04:43:59.998Z,13.90
2023-04-29T04:46:26.431Z,13.25
2023-04-29T04:48:52.937Z,14.10
2023-04-29T04:51:19.444Z,14.40
2023-04-29T04:53:45.902Z,13.48
2023-04-29T04:56:12.624Z,15.30
2023-04-29T04:58:39.107Z,13.32
2023-04-29T05:01:05.789Z,13.45
2023-04-29T05:03:32.486Z,13.23
2023-04-29T05:06:00.424Z,13.65
2023-04-29T05:08:27.193Z,13.10
2023-04-29T05:10:54.268Z,13.02
2023-04-29T05:13:21.132Z,10.68
2023-04-29T05:15:47.890Z,13.07
2023-04-29T05:18:17.484Z,11.55
2023-04-29T05:20:43.939Z,12.77
2023-04-29T05:23:10.542Z,13.45
2023-04-29T05:25:38.222Z,13.68
2023-04-29T05:28:05.137Z,12.63
2023-04-29T05:30:31.648Z,13.57
2023-04-29T05:32:58.633Z,13.55
2023-04-29T05:35:25.504Z,12.02
2023-04-29T05:37:51.929Z,13.00
2023-04-29T05:40:18.384Z,12.13
2023-04-29T05:42:45.270Z,13.02
2023-04-29T05:45:12.599Z,12.90
2023-04-29T05:47:39.141Z,12.40
2023-04-29T05:50:06.229Z,12.75
2023-04-29T05:52:32.717Z,13.07
2023-04-29T05:54:59.267Z,13.13
2023-04-29T05:57:26.920Z,12.57
2023-04-29T05:59:55.313Z,13.73
2023-04-29T06:02:22.490Z,14.15
2023-04-29T06:04:49.403Z,13.25
2023-04-29T06:07:18.292Z,12.20
2023-04-29T06:09:46.651Z,12.68
2023-04-29T06:12:13.182Z,13.85
2023-04-29T06:14:39.650Z,12.75
2023-04-29T06:17:06.521Z,12.90
2023-04-29T06:19:34.109Z,13.57
2023-04-29T06:22:00.704Z,14.00
2023-04-29T06:24:27.292Z,13.70
2023-04-29T06:26:53.760Z,13.52
2023-04-29T06:29:20.260Z,14.25
2023-04-29T06:31:46.766Z,13.55
2023-04-29T06:34:13.288Z,13.35
2023-04-29T06:36:39.797Z,13.85
2023-04-29T06:39:06.360Z,13.00
2023-04-29T06:41:34.743Z,13.15
2023-04-29T06:44:01.241Z,13.35
2023-04-29T06:46:29.241Z,14.20
2023-04-29T06:48:55.775Z,13.23
2023-04-29T06:51:22.305Z,13.60
2023-04-29T06:53:48.706Z,13.68
2023-04-29T06:56:16.799Z,13.43
2023-04-29T06:58:43.832Z,13.32
2023-04-29T07:01:11.010Z,12.75
2023-04-29T07:03:37.964Z,12.65
2023-04-29T07:06:04.963Z,13.13
2023-04-29T07:08:32.229Z,12.70
2023-04-29T07:10:59.134Z,13.25
2023-04-29T07:13:26.181Z,12.80
2023-04-29T07:15:52.768Z,13.25
2023-04-29T07:18:19.385Z,13.55
2023-04-29T07:20:47.270Z,11.90
2023-04-29T07:23:14.856Z,12.00
2023-04-29T07:25:41.603Z,11.73
2023-04-29T07:28:09.214Z,11.73
2023-04-29T07:30:36.321Z,11.35
2023-04-29T07:33:04.310Z,11.80
2023-04-29T07:35:31.022Z,10.93
2023-04-29T07:37:57.698Z,11.18
2023-04-29T07:40:24.188Z,10.88
2023-04-29T07:42:50.794Z,12.30
2023-04-29T07:45:17.555Z,10.95
2023-04-29T07:47:44.607Z,11.93
2023-04-29T07:50:11.252Z,10.65
2023-04-29T07:52:37.686Z,11.63
2023-04-29T07:55:04.415Z,10.88
2023-04-29T07:57:30.937Z,10.45
2023-04-29T07:59:57.338Z,10.18
2023-04-29T08:02:24.125Z,10.68
2023-04-29T08:04:51.657Z,9.90
2023-04-29T08:07:18.623Z,10.60
2023-04-29T08:09:45.145Z,10.18
2023-04-29T08:12:11.652Z,9.52
2023-04-29T08:14:38.099Z,9.55
2023-04-29T08:17:04.571Z,9.55
2023-04-29T08:19:31.444Z,8.38
2023-04-29T08:21:58.238Z,8.70
2023-04-29T08:24:25.099Z,8.43
2023-04-29T08:26:52.502Z,9.07
2023-04-29T08:29:18.984Z,8.15
2023-04-29T08:31:45.554Z,7.72
2023-04-29T08:34:12.076Z,7.93
2023-04-29T08:36:38.694Z,8.55
2023-04-29T08:39:05.201Z,8.35
2023-04-29T08:41:33.188Z,8.02
2023-04-29T08:44:00.838Z,8.82
2023-04-29T08:46:27.839Z,7.47
2023-04-29T08:48:56.543Z,8.88
2023-04-29T08:51:23.065Z,8.35
2023-04-29T08:53:49.582Z,8.73
2023-04-29T08:56:20.709Z,8.35
2023-04-29T08:58:54.295Z,8.27
2023-04-29T09:01:23.183Z,8.05
2023-04-29T09:03:57.110Z,8.23
2023-04-29T09:06:23.849Z,8.40
2023-04-29T09:08:50.401Z,7.53
2023-04-29T09:11:17.584Z,7.43
2023-04-29T09:13:44.196Z,7.90
2023-04-29T09:16:12.307Z,7.80
2023-04-29T09:18:52.151Z,8.75
2023-04-29T09:21:22.559Z,7.45
2023-04-29T09:24:00.228Z,7.63
2023-04-29T09:26:27.443Z,6.50
2023-04-29T09:29:07.890Z,7.28
2023-04-29T09:31:34.612Z,6.50
2023-04-29T09:34:01.005Z,6.22
2023-04-29T09:36:48.126Z,7.30
2023-04-29T09:39:21.087Z,6.18
2023-04-29T09:41:50.699Z,6.43
2023-04-29T09:44:17.258Z,5.70
2023-04-29T09:46:43.941Z,5.65
2023-04-29T09:49:27.609Z,5.85
2023-04-29T09:51:55.820Z,5.13
2023-04-29T09:54:24.040Z,6.10
2023-04-29T09:56:53.085Z,5.35
2023-04-29T09:59:20.134Z,5.03
2023-04-29T10:01:51.366Z,4.53
2023-04-29T10:04:19.282Z,5.65
2023-04-29T10:06:49.480Z,4.90
2023-04-29T10:09:17.124Z,4.88
2023-04-29T10:12:03.324Z,5.40
2023-04-29T10:14:33.616Z,5.20
2023-04-29T10:17:09.389Z,4.95
2023-04-29T10:19:43.003Z,5.63
2023-04-29T10:22:16.028Z,5.43
2023-04-29T10:24:43.620Z,5.28
2023-04-29T10:27:12.644Z,4.47
2023-04-29T10:29:41.607Z,4.82
2023-04-29T10:32:10.656Z,4.28
2023-04-29T10:34:38.908Z,5.20
2023-04-29T10:37:08.776Z,4.40
2023-04-29T10:40:00.719Z,4.40
2023-04-29T10:42:42.472Z,4.35
2023-04-29T10:45:21.051Z,4.25
2023-04-29T10:48:03.094Z,4.20
2023-04-29T10:50:30.543Z,4.03
2023-04-29T10:52:57.925Z,3.78
2023-04-29T10:55:25.756Z,4.32
2023-04-29T10:57:58.447Z,4.32
2023-04-29T11:00:30.032Z,4.50
2023-04-29T11:03:02.463Z,4.60
2023-04-29T11:05:36.955Z,4.10
2023-04-29T11:08:24.047Z,4.60
2023-04-29T11:10:54.802Z,4.35
2023-04-29T11:13:31.739Z,3.67
2023-04-29T11:16:05.265Z,3.97
2023-04-29T11:18:32.382Z,4.30
2023-04-29T11:21:04.627Z,3.88
2023-04-29T11:23:34.491Z,4.13
2023-04-29T11:26:04.528Z,4.20
2023-04-29T11:28:32.357Z,4.00
2023-04-29T11:31:00.152Z,4.63
2023-04-29T11:33:27.971Z,3.90
2023-04-29T11:35:54.878Z,3.60
2023-04-29T11:38:31.065Z,4.40
2023-04-29T11:40:58.355Z,3.70
2023-04-29T11:43:25.424Z,4.03
2023-04-29T11:45:53.557Z,3.97
2023-04-29T11:48:21.150Z,3.88
2023-04-29T11:50:49.919Z,3.93
2023-04-29T11:53:16.500Z,3.63
2023-04-29T11:55:43.623Z,3.90
2023-04-29T11:58:10.700Z,3.75
2023-04-29T12:00:37.643Z,3.42
2023-04-29T12:03:23.262Z,3.50
2023-04-29T12:05:57.218Z,4.25
2023-04-29T12:08:25.565Z,3.10
2023-04-29T12:13:20.875Z,3.33
2023-04-29T12:15:48.890Z,3.00
2023-04-29T12:18:17.999Z,4.00
2023-04-29T12:20:45.594Z,2.90
2023-04-29T12:23:20.323Z,3.80
2023-04-29T12:25:58.172Z,3.80
2023-04-29T12:28:25.829Z,4.10
2023-04-29T12:30:56.614Z,3.38
2023-04-29T12:33:27.099Z,3.15
2023-04-29T12:35:56.824Z,3.08
2023-04-29T12:38:28.516Z,3.85
2023-04-29T12:40:59.239Z,3.40
2023-04-29T12:43:27.809Z,3.10
2023-04-29T12:46:15.292Z,3.30
2023-04-29T12:48:43.605Z,3.38
2023-04-29T12:51:10.725Z,3.20
2023-04-29T12:53:37.914Z,2.72
2023-04-29T12:56:05.922Z,3.40
2023-04-29T12:58:33.770Z,3.05
2023-04-29T13:01:00.624Z,3.00
2023-04-29T13:03:27.588Z,3.20
2023-04-29T13:05:54.937Z,3.22
2023-04-29T13:08:22.034Z,3.33
2023-04-29T13:10:48.514Z,3.33
2023-04-29T13:13:15.124Z,3.15
2023-04-29T13:15:41.706Z,3.10
2023-04-29T13:18:08.475Z,3.00
2023-04-29T13:20:41.032Z,3.20
2023-04-29T13:23:08.737Z,2.40
2023-04-29T13:25:35.154Z,2.83
2023-04-29T13:28:02.002Z,2.60
2023-04-29T13:30:28.529Z,2.22
2023-04-29T13:32:58.728Z,2.88
2023-04-29T13:35:31.100Z,2.70
2023-04-29T13:37:57.774Z,3.08
2023-04-29T13:40:27.729Z,2.90
2023-04-29T13:43:02.612Z,2.80
2023-04-29T13:45:38.290Z,2.40
2023-04-29T13:48:20.103Z,2.83
2023-04-29T13:53:46.458Z,3.10
2023-04-29T13:59:12.922Z,3.30
2023-04-29T14:03:54.049Z,2.70
2023-04-29T14:06:20.670Z,3.10
2023-04-29T14:08:47.110Z,2.53
2023-04-29T14:11:13.685Z,2.90
2023-04-29T14:13:40.278Z,3.20
2023-04-29T14:16:07.389Z,2.55
2023-04-29T14:18:33.973Z,2.78
2023-04-29T14:21:00.482Z,2.65
2023-04-29T14:23:26.875Z,2.88
2023-04-29T14:25:58.912Z,2.85
2023-04-29T14:28:32.938Z,2.40
2023-04-29T14:30:59.397Z,2.15
2023-04-29T14:33:25.930Z,1.90
2023-04-29T14:35:52.415Z,2.05
2023-04-29T14:38:18.964Z,2.22
2023-04-29T14:40:45.395Z,1.90
2023-04-29T14:43:11.809Z,2.20
2023-04-29T14:45:38.317Z,1.90
2023-04-29T14:48:05.654Z,1.83
2023-04-29T14:50:32.148Z,1.90
2023-04-29T14:52:59.947Z,1.95
2023-04-29T14:55:26.431Z,2.10
2023-04-29T14:57:52.895Z,2.17
2023-04-29T15:00:19.567Z,1.80
2023-04-29T15:02:46.396Z,2.10
2023-04-29T15:05:12.844Z,1.70
2023-04-29T15:07:39.340Z,1.80
2023-04-29T15:10:07.864Z,2.00
2023-04-29T15:12:34.296Z,1.90
2023-04-29T15:15:02.019Z,1.60
2023-04-29T15:17:28.679Z,1.70
2023-04-29T15:19:55.190Z,1.70
2023-04-29T15:22:21.708Z,1.67
2023-04-29T15:27:16.295Z,3.03
2023-04-29T15:29:42.894Z,4.72
2023-04-29T15:32:10.484Z,3.75
2023-04-29T15:34:37.175Z,3.17
2023-04-29T15:37:03.705Z,2.22
2023-04-29T15:39:30.099Z,2.20
2023-04-29T15:41:58.620Z,1.90
2023-04-29T15:44:25.044Z,1.83
2023-04-29T15:46:51.663Z,2.30
2023-04-29T15:49:18.120Z,2.10
2023-04-29T15:51:44.618Z,2.20
2023-04-29T15:54:11.076Z,2.30
2023-04-29T15:56:38.106Z,2.60
2023-04-29T15:59:04.644Z,2.42
2023-04-29T16:01:31.266Z,2.42
2023-04-29T16:03:57.972Z,2.58
2023-04-29T16:06:24.737Z,2.70
2023-04-29T16:08:51.145Z,2.60
2023-04-29T16:11:17.540Z,2.80
2023-04-29T16:13:44.117Z,2.95
2023-04-29T16:16:10.579Z,2.92
2023-04-29T16:18:36.986Z,3.20
2023-04-29T16:21:04.209Z,2.90
2023-04-29T16:23:30.698Z,2.63
2023-04-29T16:25:57.137Z,2.83
2023-04-29T16:28:24.495Z,2.63
2023-04-29T16:30:50.970Z,2.75
2023-04-29T16:33:17.547Z,2.67
2023-04-29T16:35:44.269Z,2.95
2023-04-29T16:38:11.749Z,3.17
2023-04-29T16:40:38.237Z,2.97
2023-04-29T16:43:04.805Z,2.75
2023-04-29T16:45:31.517Z,2.90
2023-04-29T16:47:58.484Z,3.00
2023-04-29T16:50:25.029Z,3.00
2023-04-29T16:52:51.443Z,3.00
2023-04-29T16:55:17.908Z,3.17
2023-04-29T16:57:44.419Z,2.72
2023-04-29T17:00:12.245Z,2.67
2023-04-29T17:02:40.293Z,2.72
2023-04-29T17:05:08.918Z,2.83
2023-04-29T17:07:35.611Z,2.47
2023-04-29T17:10:02.170Z,2.75
2023-04-29T17:12:28.604Z,3.05
2023-04-29T17:14:55.120Z,2.55
2023-04-29T17:17:21.666Z,2.58
2023-04-29T17:19:50.208Z,2.60
2023-04-29T17:24:46.437Z,2.38
2023-04-29T17:27:13.321Z,2.10
2023-04-29T17:29:40.259Z,2.10
2023-04-29T17:32:11.441Z,2.00
2023-04-29T17:34:38.162Z,2.28
2023-04-29T17:37:06.041Z,2.33
2023-04-29T17:39:33.677Z,1.95
2023-04-29T17:42:01.197Z,2.37
2023-04-29T17:44:28.029Z,2.20
2023-04-29T17:46:54.433Z,1.75
2023-04-29T17:49:20.865Z,2.00
2023-04-29T17:51:47.279Z,4.20
2023-04-29T17:54:13.720Z,2.65
2023-04-29T17:56:40.268Z,3.05
2023-04-29T17:59:08.071Z,2.28
2023-04-29T18:01:35.587Z,1.90
2023-04-29T18:04:02.229Z,1.90
2023-04-29T18:06:30.321Z,2.05
2023-04-29T18:08:57.039Z,1.60
2023-04-29T18:11:23.595Z,3.35
2023-04-29T18:13:53.225Z,3.17
2023-04-29T18:16:19.769Z,2.30
2023-04-29T18:18:46.300Z,2.13
2023-04-29T18:21:12.691Z,2.50
2023-04-29T18:23:40.488Z,2.25
2023-04-29T18:26:08.235Z,2.60
2023-04-29T18:28:34.634Z,2.00
2023-04-29T18:31:01.196Z,2.00
2023-04-29T18:33:31.241Z,2.15
2023-04-29T18:35:57.737Z,1.90
2023-04-29T18:38:24.940Z,2.22
2023-04-29T18:40:51.489Z,1.92
2023-04-29T18:43:22.315Z,1.88
2023-04-29T18:45:48.810Z,2.25
2023-04-29T18:48:15.392Z,1.90
2023-04-29T18:50:42.082Z,1.92
2023-04-29T18:53:08.917Z,2.08
2023-04-29T18:55:36.016Z,2.10
2023-04-29T18:58:02.541Z,2.10
2023-04-29T19:00:29.583Z,2.25
2023-04-29T19:02:56.544Z,2.35
2023-04-29T19:05:23.185Z,1.88
2023-04-29T19:07:49.818Z,2.10
2023-04-29T19:10:16.444Z,2.20
2023-04-29T19:12:42.898Z,1.77
2023-04-29T19:15:09.928Z,4.68
2023-04-29T19:17:36.530Z,3.83
2023-04-29T19:20:03.686Z,3.13
2023-04-29T19:22:30.945Z,2.42
2023-04-29T19:24:57.435Z,2.50
2023-04-29T19:27:24.368Z,2.30
2023-04-29T19:29:51.230Z,2.80
2023-04-29T19:32:19.731Z,2.50
2023-04-29T19:34:47.033Z,2.53
2023-04-29T19:37:14.202Z,2.95
2023-04-29T19:39:40.810Z,2.70
2023-04-29T19:42:07.243Z,2.40
2023-04-29T19:44:33.665Z,2.35
2023-04-29T19:47:00.275Z,2.40
2023-04-29T19:49:26.779Z,2.38
2023-04-29T19:51:54.300Z,2.53
2023-04-29T19:54:20.886Z,2.63
2023-04-29T19:56:47.366Z,2.88
2023-04-29T19:59:13.895Z,2.80
2023-04-29T20:01:41.014Z,2.85
2023-04-29T20:04:07.806Z,2.60
2023-04-29T20:06:35.034Z,2.63
2023-04-29T20:09:01.720Z,2.42
2023-04-29T20:11:28.141Z,2.40
2023-04-29T20:13:54.570Z,2.97
2023-04-29T20:16:23.284Z,4.75
2023-04-29T20:18:49.887Z,4.03
2023-04-29T20:21:16.294Z,5.15
2023-04-29T20:23:42.757Z,7.30
2023-04-29T20:26:09.190Z,4.82
2023-04-29T20:28:35.659Z,4.10
2023-04-29T20:31:02.222Z,4.15
2023-04-29T20:33:28.701Z,4.53
2023-04-29T20:35:55.376Z,4.40
2023-04-29T20:38:22.846Z,4.00
2023-04-29T20:40:54.270Z,3.85
2023-04-29T20:43:20.676Z,3.50
2023-04-29T20:45:47.165Z,4.28
2023-04-29T20:48:13.824Z,4.10
2023-04-29T20:50:40.248Z,3.72
2023-04-29T20:53:07.213Z,4.50
2023-04-29T20:55:33.648Z,3.78
2023-04-29T20:58:00.120Z,4.45
2023-04-29T21:00:26.628Z,4.40
2023-04-29T21:02:53.120Z,4.60
2023-04-29T21:05:19.703Z,4.95
2023-04-29T21:07:46.169Z,4.47
2023-04-29T21:10:12.781Z,5.20
2023-04-29T21:12:39.806Z,5.50
2023-04-29T21:15:06.795Z,5.32
2023-04-29T21:17:33.300Z,5.40
2023-04-29T21:19:59.798Z,5.03
2023-04-29T21:22:26.504Z,6.25
2023-04-29T21:24:52.907Z,6.15
2023-04-29T21:27:19.523Z,6.53
2023-04-29T21:29:45.988Z,6.20
2023-04-29T21:32:12.578Z,6.20
2023-04-29T21:34:39.084Z,6.72
2023-04-29T21:37:05.581Z,6.68
2023-04-29T21:39:32.305Z,6.70
2023-04-29T21:42:00.717Z,6.38
2023-04-29T21:44:27.511Z,6.53
2023-04-29T21:46:54.038Z,6.80
2023-04-29T21:49:20.858Z,5.97
2023-04-29T21:51:47.656Z,6.82
2023-04-29T21:54:14.092Z,7.35
2023-04-29T21:56:40.583Z,7.03
2023-04-29T21:59:07.050Z,7.38
2023-04-29T22:01:48.233Z,6.28
2023-04-29T22:04:24.289Z,7.00
2023-04-29T22:06:50.803Z,7.00
2023-04-29T22:09:17.259Z,6.85
2023-04-29T22:11:44.010Z,7.38
2023-04-29T22:14:10.483Z,6.70
2023-04-29T22:16:37.111Z,7.05
2023-04-29T22:19:04.071Z,8.00
2023-04-29T22:21:31.744Z,8.75
2023-04-29T22:23:58.211Z,7.57
2023-04-29T22:26:25.585Z,7.97
2023-04-29T22:28:52.570Z,6.60
2023-04-29T22:31:19.158Z,7.88
2023-04-29T22:33:45.842Z,6.30
2023-04-29T22:36:12.349Z,6.75
2023-04-29T22:38:38.836Z,6.82
2023-04-29T22:41:05.905Z,7.30
2023-04-29T22:43:32.354Z,6.28
2023-04-29T22:45:58.844Z,7.90
2023-04-29T22:48:27.627Z,6.88
2023-04-29T22:51:01.346Z,6.57
2023-04-29T22:53:27.860Z,6.65
2023-04-29T22:55:56.925Z,6.30
2023-04-29T22:58:27.234Z,6.35
2023-04-29T23:00:56.927Z,6.35
2023-04-29T23:03:23.970Z,6.22
2023-04-29T23:05:50.516Z,6.72
2023-04-29T23:08:17.058Z,7.32
2023-04-29T23:10:49.724Z,7.93
2023-04-29T23:13:16.948Z,7.28
2023-04-29T23:15:43.726Z,6.78
2023-04-29T23:18:10.401Z,5.80
2023-04-29T23:20:37.115Z,5.63
2023-04-29T23:23:03.933Z,6.63
2023-04-29T23:25:30.693Z,5.68
2023-04-29T23:27:57.126Z,5.78
2023-04-29T23:30:23.625Z,5.45
2023-04-29T23:32:50.154Z,5.80
2023-04-29T23:35:16.649Z,5.75
2023-04-29T23:37:43.109Z,5.90
2023-04-29T23:40:09.885Z,5.72
2023-04-29T23:42:36.611Z,5.40
2023-04-29T23:45:03.401Z,5.90
2023-04-29T23:47:29.982Z,5.15
2023-04-29T23:49:56.677Z,7.90
2023-04-29T23:52:23.861Z,7.38
2023-04-29T23:54:50.376Z,6.03
2023-04-29T23:57:17.006Z,5.55
2023-04-29T23:59:45.121Z,5.53
